createdAt,value
2023-03-27T00:01:17.005Z,96976.23
2023-03-27T00:03:44.766Z,96968.77
2023-03-27T00:06:17.617Z,96970.69
2023-03-27T00:08:46.679Z,96966.55
2023-03-27T00:11:14.693Z,96970.20
2023-03-27T00:13:49.043Z,96968.44
2023-03-27T00:16:29.468Z,96967.39
2023-03-27T00:19:01.413Z,96962.09
2023-03-27T00:21:31.424Z,96960.19
2023-03-27T00:23:58.129Z,96962.95
2023-03-27T00:26:25.101Z,96963.80
2023-03-27T00:28:53.096Z,96962.83
2023-03-27T00:31:20.037Z,96955.55
2023-03-27T00:33:46.933Z,96959.95
2023-03-27T00:36:15.524Z,96955.82
2023-03-27T00:38:44.223Z,96956.70
2023-03-27T00:41:11.171Z,96950.77
2023-03-27T00:43:45.298Z,96950.27
2023-03-27T00:46:15.206Z,96951.16
2023-03-27T00:48:47.448Z,96951.34
2023-03-27T00:51:16.509Z,96947.83
2023-03-27T00:53:46.158Z,96945.80
2023-03-27T00:56:16.832Z,96936.52
2023-03-27T00:59:16.897Z,96933.45
2023-03-27T01:01:45.497Z,96925.74
2023-03-27T01:04:12.992Z,96926.48
2023-03-27T01:06:42.441Z,96922.59
2023-03-27T01:09:10.017Z,96922.33
2023-03-27T01:11:43.148Z,96922.02
2023-03-27T01:14:37.904Z,96919.27
2023-03-27T01:17:34.823Z,96914.86
2023-03-27T01:20:04.336Z,96913.27
2023-03-27T01:22:46.579Z,96909.66
2023-03-27T01:25:40.907Z,96902.60
2023-03-27T01:28:13.338Z,96901.13
2023-03-27T01:30:56.768Z,96900.98
2023-03-27T01:33:51.626Z,96899.60
2023-03-27T01:36:27.655Z,96899.20
2023-03-27T01:39:32.107Z,96897.16
2023-03-27T01:42:14.492Z,96896.29
2023-03-27T01:44:49.657Z,96893.49
2023-03-27T01:47:47.878Z,96889.66
2023-03-27T01:50:27.375Z,96889.65
2023-03-27T01:53:05.015Z,96886.17
2023-03-27T01:55:37.593Z,96877.40
2023-03-27T01:58:14.257Z,96875.05
2023-03-27T02:00:53.601Z,96870.23
2023-03-27T02:03:42.299Z,96867.70
2023-03-27T02:06:12.459Z,96867.79
2023-03-27T02:09:01.421Z,96868.55
2023-03-27T02:11:34.029Z,96864.64
2023-03-27T02:14:07.330Z,96862.80
2023-03-27T02:16:42.764Z,96864.12
2023-03-27T02:19:15.092Z,96868.83
2023-03-27T02:21:41.942Z,96877.46
2023-03-27T02:24:09.306Z,96872.73
2023-03-27T02:26:36.371Z,96874.17
2023-03-27T02:29:24.303Z,96878.13
2023-03-27T02:32:25.561Z,96878.93
2023-03-27T02:35:15.724Z,96877.29
2023-03-27T02:37:54.976Z,96885.41
2023-03-27T02:40:24.963Z,96889.59
2023-03-27T02:42:58.148Z,96890.90
2023-03-27T02:45:32.447Z,96895.52
2023-03-27T02:48:10.322Z,96897.92
2023-03-27T02:51:10.298Z,96896.73
2023-03-27T02:53:47.700Z,96895.23
2023-03-27T02:56:17.907Z,96891.19
2023-03-27T02:58:53.907Z,96892.73
2023-03-27T03:01:22.712Z,96893.04
2023-03-27T03:04:18.248Z,96902.66
2023-03-27T03:06:45.805Z,96899.89
2023-03-27T03:09:15.070Z,96899.65
2023-03-27T03:11:54.260Z,96902.70
2023-03-27T03:14:24.785Z,96906.88
2023-03-27T03:16:52.099Z,96905.27
2023-03-27T03:19:18.937Z,96908.11
2023-03-27T03:21:49.680Z,96904.77
2023-03-27T03:24:17.909Z,96904.81
2023-03-27T03:26:45.417Z,96905.81
2023-03-27T03:29:13.026Z,96899.98
2023-03-27T03:31:43.631Z,96899.73
2023-03-27T03:34:16.570Z,96896.89
2023-03-27T03:36:45.129Z,96898.43
2023-03-27T03:39:12.942Z,96900.95
2023-03-27T03:41:39.881Z,96904.76
2023-03-27T03:44:06.668Z,96905.21
2023-03-27T03:46:33.522Z,96905.69
2023-03-27T03:49:01.371Z,96913.11
2023-03-27T03:51:28.891Z,96914.24
2023-03-27T03:53:55.767Z,96916.33
2023-03-27T03:56:22.516Z,96916.31
2023-03-27T03:58:49.529Z,96911.20
2023-03-27T04:01:20.871Z,96905.08
2023-03-27T04:03:48.743Z,96901.66
2023-03-27T04:06:21.243Z,96901.93
2023-03-27T04:08:48.672Z,96899.02
2023-03-27T04:11:15.378Z,96899.91
2023-03-27T04:13:42.720Z,96896.09
2023-03-27T04:16:09.907Z,96895.92
2023-03-27T04:18:40.200Z,96897.42
2023-03-27T04:21:15.053Z,96899.27
2023-03-27T04:23:48.460Z,96894.51
2023-03-27T04:26:16.337Z,96896.00
2023-03-27T04:28:43.631Z,96898.36
2023-03-27T04:31:11.166Z,96896.83
2023-03-27T04:33:40.220Z,96899.48
2023-03-27T04:36:08.382Z,96898.48
2023-03-27T04:38:37.280Z,96900.98
2023-03-27T04:41:05.524Z,96900.94
2023-03-27T04:43:32.696Z,96898.98
2023-03-27T04:45:59.594Z,96899.58
2023-03-27T04:48:26.954Z,96906.39
2023-03-27T04:50:54.144Z,96905.41
2023-03-27T04:53:23.681Z,96907.80
2023-03-27T04:55:53.494Z,96907.88
2023-03-27T04:58:20.367Z,96905.74
2023-03-27T05:00:50.870Z,96905.27
2023-03-27T05:03:21.142Z,96904.89
2023-03-27T05:05:52.747Z,96909.31
2023-03-27T05:08:20.280Z,96906.02
2023-03-27T05:10:47.642Z,96908.39
2023-03-27T05:13:14.598Z,96909.27
2023-03-27T05:15:42.006Z,96911.19
2023-03-27T05:18:09.455Z,96918.70
2023-03-27T05:20:37.322Z,96914.54
2023-03-27T05:23:04.592Z,96921.52
2023-03-27T05:25:32.951Z,96922.61
2023-03-27T05:28:01.032Z,96921.70
2023-03-27T05:30:29.082Z,96920.38
2023-03-27T05:32:59.692Z,96920.58
2023-03-27T05:35:28.782Z,96924.52
2023-03-27T05:37:57.735Z,96922.79
2023-03-27T05:40:26.360Z,96922.00
2023-03-27T05:42:56.807Z,96922.38
2023-03-27T05:45:24.486Z,96923.50
2023-03-27T05:47:53.176Z,96929.92
2023-03-27T05:50:23.095Z,96932.45
2023-03-27T05:52:59.412Z,96931.58
2023-03-27T05:55:28.055Z,96931.05
2023-03-27T05:57:55.618Z,96933.00
2023-03-27T06:00:26.568Z,96934.85
2023-03-27T06:02:56.538Z,96943.19
2023-03-27T06:05:25.261Z,96944.50
2023-03-27T06:07:52.532Z,96949.44
2023-03-27T06:10:22.706Z,96955.27
2023-03-27T06:12:49.780Z,96962.45
2023-03-27T06:15:16.830Z,96965.64
2023-03-27T06:17:47.308Z,96969.38
2023-03-27T06:20:15.763Z,96972.52
2023-03-27T06:22:48.955Z,96976.77
2023-03-27T06:25:16.882Z,96979.83
2023-03-27T06:27:48.141Z,96976.85
2023-03-27T06:30:17.597Z,96987.71
2023-03-27T06:32:45.931Z,96993.96
2023-03-27T06:35:14.863Z,96996.67
2023-03-27T06:37:42.995Z,96999.45
2023-03-27T06:40:10.805Z,96998.50
2023-03-27T06:42:38.741Z,97001.23
2023-03-27T06:45:06.673Z,97005.23
2023-03-27T06:47:44.497Z,97008.48
2023-03-27T06:50:15.196Z,97012.71
2023-03-27T06:52:42.069Z,97012.73
2023-03-27T06:55:14.747Z,97011.48
2023-03-27T06:57:47.391Z,97015.09
2023-03-27T07:00:17.765Z,97019.02
2023-03-27T07:02:45.739Z,97020.63
2023-03-27T07:05:13.595Z,97024.16
2023-03-27T07:07:41.720Z,97031.52
2023-03-27T07:10:10.052Z,97034.23
2023-03-27T07:12:37.031Z,97034.59
2023-03-27T07:15:06.919Z,97039.03
2023-03-27T07:17:47.534Z,97035.95
2023-03-27T07:20:15.765Z,97034.73
2023-03-27T07:22:46.084Z,97040.88
2023-03-27T07:25:13.332Z,97040.79
2023-03-27T07:27:40.414Z,97041.71
2023-03-27T07:30:12.573Z,97048.85
2023-03-27T07:32:42.775Z,97052.42
2023-03-27T07:35:11.093Z,97053.30
2023-03-27T07:37:39.412Z,97059.59
2023-03-27T07:40:13.578Z,97065.03
2023-03-27T07:42:45.788Z,97064.04
2023-03-27T07:45:14.005Z,97064.52
2023-03-27T07:47:43.177Z,97068.24
2023-03-27T07:50:19.339Z,97071.49
2023-03-27T07:52:46.898Z,97071.23
2023-03-27T07:55:18.180Z,97076.27
2023-03-27T07:58:00.552Z,97076.05
2023-03-27T08:00:30.120Z,97077.96
2023-03-27T08:03:07.434Z,97079.05
2023-03-27T08:05:35.307Z,97082.67
2023-03-27T08:08:02.234Z,97084.09
2023-03-27T08:10:29.189Z,97085.66
2023-03-27T08:12:57.204Z,97085.06
2023-03-27T08:15:25.490Z,97086.55
2023-03-27T08:17:55.591Z,97090.36
2023-03-27T08:20:24.391Z,97100.21
2023-03-27T08:22:52.991Z,97100.73
2023-03-27T08:25:22.845Z,97106.56
2023-03-27T08:27:50.874Z,97113.34
2023-03-27T08:30:18.423Z,97124.80
2023-03-27T08:32:45.358Z,97124.56
2023-03-27T08:35:12.605Z,97133.95
2023-03-27T08:37:41.635Z,97141.42
2023-03-27T08:40:19.706Z,97150.07
2023-03-27T08:42:50.996Z,97161.10
2023-03-27T08:45:24.114Z,97165.00
2023-03-27T08:48:22.274Z,97176.05
2023-03-27T08:51:20.305Z,97184.13
2023-03-27T08:54:06.489Z,97199.39
2023-03-27T08:56:34.819Z,97204.39
2023-03-27T08:59:02.073Z,97211.78
2023-03-27T09:01:47.307Z,97220.80
2023-03-27T09:04:48.948Z,97233.08
2023-03-27T09:07:29.104Z,97240.98
2023-03-27T09:10:17.869Z,97246.05
2023-03-27T09:13:27.937Z,97257.42
2023-03-27T09:16:06.643Z,97262.31
2023-03-27T09:18:33.591Z,97279.91
2023-03-27T09:21:16.309Z,97280.71
2023-03-27T09:23:46.603Z,97285.91
2023-03-27T09:26:28.961Z,97284.39
2023-03-27T09:29:19.858Z,97296.33
2023-03-27T09:31:49.743Z,97303.25
2023-03-27T09:34:24.662Z,97309.86
2023-03-27T09:36:51.665Z,97317.65
2023-03-27T09:39:27.960Z,97325.10
2023-03-27T09:42:19.571Z,97335.83
2023-03-27T09:44:52.569Z,97341.17
2023-03-27T09:47:34.891Z,97351.41
2023-03-27T09:50:54.298Z,97355.38
2023-03-27T09:53:26.244Z,97358.68
2023-03-27T09:56:03.975Z,97373.77
2023-03-27T09:58:51.533Z,97377.27
2023-03-27T10:01:28.154Z,97383.65
2023-03-27T10:03:58.323Z,97380.54
2023-03-27T10:06:30.970Z,97391.35
2023-03-27T10:09:07.445Z,97386.69
2023-03-27T10:11:36.832Z,97390.75
2023-03-27T10:14:14.079Z,97387.46
2023-03-27T10:16:42.679Z,97390.05
2023-03-27T10:19:31.278Z,97384.95
2023-03-27T10:22:04.666Z,97387.29
2023-03-27T10:24:35.049Z,97393.92
2023-03-27T10:27:19.941Z,97397.35
2023-03-27T10:29:53.761Z,97400.77
2023-03-27T10:32:50.053Z,97398.75
2023-03-27T10:35:52.835Z,97397.13
2023-03-27T10:38:29.270Z,97397.16
2023-03-27T10:40:57.321Z,97395.30
2023-03-27T10:43:40.173Z,97390.83
2023-03-27T10:46:27.388Z,97397.11
2023-03-27T10:49:22.423Z,97404.27
2023-03-27T10:51:51.749Z,97413.21
2023-03-27T10:54:32.033Z,97416.77
2023-03-27T10:57:08.850Z,97424.21
2023-03-27T10:59:44.823Z,97426.32
2023-03-27T11:02:17.677Z,97428.25
2023-03-27T11:05:02.861Z,97430.88
2023-03-27T11:07:38.144Z,97435.27
2023-03-27T11:10:23.370Z,97438.20
2023-03-27T11:12:57.720Z,97442.45
2023-03-27T11:15:39.810Z,97446.70
2023-03-27T11:18:23.453Z,97451.94
2023-03-27T11:20:56.915Z,97463.06
2023-03-27T11:23:48.940Z,97465.09
2023-03-27T11:26:18.904Z,97472.27
2023-03-27T11:28:53.376Z,97476.77
2023-03-27T11:31:38.999Z,97483.33
2023-03-27T11:34:28.486Z,97490.71
2023-03-27T11:37:19.775Z,97498.54
2023-03-27T11:39:54.354Z,97499.02
2023-03-27T11:42:26.926Z,97507.74
2023-03-27T11:44:54.427Z,97512.41
2023-03-27T11:47:25.319Z,97523.27
2023-03-27T11:50:16.922Z,97528.90
2023-03-27T11:53:21.873Z,97532.11
2023-03-27T11:56:26.661Z,97538.17
2023-03-27T11:59:23.139Z,97540.94
2023-03-27T12:01:59.557Z,97550.54
2023-03-27T12:04:54.208Z,97556.51
2023-03-27T12:07:38.064Z,97564.16
2023-03-27T12:10:29.066Z,97572.31
2023-03-27T12:12:59.564Z,97578.16
2023-03-27T12:15:54.761Z,97584.22
2023-03-27T12:18:36.239Z,97593.84
2023-03-27T12:21:17.951Z,97598.93
2023-03-27T12:24:11.456Z,97603.77
2023-03-27T12:26:56.720Z,97605.59
2023-03-27T12:29:51.154Z,97612.61
2023-03-27T12:32:42.773Z,97614.08
2023-03-27T12:35:21.741Z,97617.20
2023-03-27T12:38:37.961Z,97624.38
2023-03-27T12:41:13.725Z,97627.40
2023-03-27T12:43:46.460Z,97633.19
2023-03-27T12:46:25.569Z,97638.85
2023-03-27T12:49:12.993Z,97650.54
2023-03-27T12:51:52.185Z,97654.41
2023-03-27T12:54:26.850Z,97662.52
2023-03-27T12:57:06.863Z,97665.55
2023-03-27T12:59:55.056Z,97675.58
2023-03-27T13:02:25.002Z,97681.52
2023-03-27T13:05:24.485Z,97689.26
2023-03-27T13:08:12.071Z,97691.25
2023-03-27T13:10:38.911Z,97699.26
2023-03-27T13:13:52.914Z,97712.29
2023-03-27T13:16:38.818Z,97715.19
2023-03-27T13:19:31.159Z,97713.98
2023-03-27T13:22:24.993Z,97722.42
2023-03-27T13:25:26.675Z,97724.54
2023-03-27T13:28:12.053Z,97727.13
2023-03-27T13:30:53.739Z,97727.45
2023-03-27T13:33:23.383Z,97732.88
2023-03-27T13:36:02.748Z,97733.27
2023-03-27T13:38:49.549Z,97733.98
2023-03-27T13:41:44.991Z,97740.13
2023-03-27T13:44:29.138Z,97743.06
2023-03-27T13:47:39.719Z,97750.08
2023-03-27T13:50:14.858Z,97755.82
2023-03-27T13:53:09.891Z,97756.46
2023-03-27T13:56:05.713Z,97770.89
2023-03-27T13:58:38.585Z,97779.70
2023-03-27T14:01:13.298Z,97786.62
2023-03-27T14:04:06.546Z,97796.22
2023-03-27T14:06:36.694Z,97807.34
2023-03-27T14:09:06.398Z,97813.23
2023-03-27T14:12:02.512Z,97810.59
2023-03-27T14:14:41.754Z,97825.25
2023-03-27T14:17:27.144Z,97825.73
2023-03-27T14:20:08.514Z,97829.43
2023-03-27T14:22:44.204Z,97834.23
2023-03-27T14:36:26.370Z,97849.73
2023-03-27T14:38:53.357Z,97856.55
2023-03-27T14:41:48.678Z,97858.29
2023-03-27T14:44:18.796Z,97870.17
2023-03-27T14:46:49.618Z,97874.98
2023-03-27T14:49:24.892Z,97882.39
2023-03-27T14:52:11.231Z,97890.23
2023-03-27T14:54:55.059Z,97895.58
2023-03-27T14:57:26.439Z,97901.00
2023-03-27T14:59:59.423Z,97907.02
2023-03-27T15:02:43.278Z,97911.59
2023-03-27T15:05:14.114Z,97913.44
2023-03-27T15:07:43.032Z,97920.55
2023-03-27T15:10:28.357Z,97928.20
2023-03-27T15:12:56.822Z,97929.09
2023-03-27T15:15:31.339Z,97928.38
2023-03-27T15:18:00.292Z,97934.48
2023-03-27T15:20:30.613Z,97937.40
2023-03-27T15:23:19.495Z,97937.48
2023-03-27T15:26:12.695Z,97945.05
2023-03-27T15:28:53.672Z,97943.58
2023-03-27T15:31:21.265Z,97945.47
2023-03-27T15:34:13.031Z,97946.39
2023-03-27T15:36:43.775Z,97952.40
2023-03-27T15:39:19.730Z,97959.40
2023-03-27T15:41:51.681Z,97966.42
2023-03-27T15:44:22.075Z,97968.52
2023-03-27T15:46:55.671Z,97972.20
2023-03-27T15:49:27.754Z,97975.29
2023-03-27T15:51:56.307Z,97979.02
2023-03-27T15:54:29.827Z,97978.26
2023-03-27T15:57:09.069Z,97981.38
2023-03-27T15:59:52.175Z,97978.29
2023-03-27T16:02:22.711Z,97974.73
2023-03-27T16:04:56.865Z,97980.02
2023-03-27T16:07:30.606Z,97982.82
2023-03-27T16:10:05.348Z,97984.86
2023-03-27T16:12:47.689Z,97990.23
2023-03-27T16:15:45.407Z,97990.23
2023-03-27T16:18:34.949Z,97995.86
2023-03-27T16:21:10.499Z,98000.92
2023-03-27T16:23:38.249Z,98000.84
2023-03-27T16:26:09.187Z,98010.98
2023-03-27T16:28:36.912Z,98012.13
2023-03-27T16:31:16.819Z,98017.88
2023-03-27T16:33:46.225Z,98026.48
2023-03-27T16:36:15.666Z,98027.70
2023-03-27T16:38:44.121Z,98026.05
2023-03-27T16:41:15.971Z,98024.94
2023-03-27T16:43:44.271Z,98033.45
2023-03-27T16:46:37.891Z,98032.32
2023-03-27T16:49:05.094Z,98038.77
2023-03-27T16:51:32.376Z,98042.87
2023-03-27T16:54:00.046Z,98045.25
2023-03-27T16:56:27.355Z,98050.23
2023-03-27T16:58:54.372Z,98056.77
2023-03-27T17:01:24.295Z,98062.41
2023-03-27T17:03:51.492Z,98064.70
2023-03-27T17:06:19.653Z,98067.03
2023-03-27T17:08:47.178Z,98071.38
2023-03-27T17:11:14.174Z,98081.29
2023-03-27T17:13:43.607Z,98087.88
2023-03-27T17:16:11.119Z,98089.45
2023-03-27T17:18:38.320Z,98096.16
2023-03-27T17:21:05.356Z,98099.20
2023-03-27T17:23:32.728Z,98096.66
2023-03-27T17:26:02.141Z,98102.61
2023-03-27T17:28:30.340Z,98102.13
2023-03-27T17:31:04.470Z,98108.40
2023-03-27T17:33:33.080Z,98108.62
2023-03-27T17:36:00.365Z,98109.59
2023-03-27T17:38:28.016Z,98114.67
2023-03-27T17:40:55.331Z,98119.91
2023-03-27T17:43:22.846Z,98125.27
2023-03-27T17:45:51.438Z,98126.49
2023-03-27T17:48:19.017Z,98130.05
2023-03-27T17:51:01.126Z,98133.23
2023-03-27T17:53:35.590Z,98136.02
2023-03-27T17:56:02.543Z,98143.25
2023-03-27T17:58:29.693Z,98146.95
2023-03-27T18:00:56.767Z,98152.51
2023-03-27T18:03:24.111Z,98157.67
2023-03-27T18:05:51.272Z,98160.98
2023-03-27T18:08:20.103Z,98166.73
2023-03-27T18:10:51.309Z,98167.86
2023-03-27T18:13:19.519Z,98170.84
2023-03-27T18:15:47.284Z,98172.91
2023-03-27T18:18:14.288Z,98177.83
2023-03-27T18:20:41.569Z,98185.20
2023-03-27T18:23:08.721Z,98186.28
2023-03-27T18:25:36.608Z,98188.52
2023-03-27T18:28:03.526Z,98194.04
2023-03-27T18:30:32.200Z,98192.11
2023-03-27T18:32:59.358Z,98198.11
2023-03-27T18:35:26.503Z,98199.38
2023-03-27T18:37:53.977Z,98204.16
2023-03-27T18:40:21.421Z,98205.74
2023-03-27T18:42:48.739Z,98203.66
2023-03-27T18:45:17.107Z,98203.53
2023-03-27T18:47:45.334Z,98203.60
2023-03-27T18:50:14.314Z,98209.55
2023-03-27T18:52:42.209Z,98211.05
2023-03-27T18:55:11.565Z,98212.11
2023-03-27T18:57:38.716Z,98218.98
2023-03-27T19:00:08.949Z,98217.22
2023-03-27T19:02:37.098Z,98219.36
2023-03-27T19:05:05.025Z,98225.83
2023-03-27T19:07:32.124Z,98225.52
2023-03-27T19:09:59.675Z,98227.23
2023-03-27T19:12:26.687Z,98224.64
2023-03-27T19:14:53.810Z,98225.39
2023-03-27T19:17:21.495Z,98223.51
2023-03-27T19:19:48.692Z,98226.41
2023-03-27T19:22:15.834Z,98230.29
2023-03-27T19:24:42.866Z,98228.19
2023-03-27T19:27:23.517Z,98232.71
2023-03-27T19:29:53.098Z,98234.08
2023-03-27T19:32:21.049Z,98233.64
2023-03-27T19:34:48.150Z,98237.10
2023-03-27T19:37:15.199Z,98233.29
2023-03-27T19:39:42.033Z,98234.16
2023-03-27T19:42:09.096Z,98235.41
2023-03-27T19:44:38.370Z,98232.08
2023-03-27T19:47:07.855Z,98233.58
2023-03-27T19:49:34.823Z,98236.58
2023-03-27T19:52:04.043Z,98238.67
2023-03-27T19:54:32.122Z,98240.98
2023-03-27T19:56:59.431Z,98241.86
2023-03-27T19:59:30.846Z,98240.14
2023-03-27T20:01:58.982Z,98244.88
2023-03-27T20:04:26.629Z,98244.90
2023-03-27T20:06:55.966Z,98247.88
2023-03-27T20:09:22.972Z,98248.11
2023-03-27T20:11:49.728Z,98250.82
2023-03-27T20:14:16.961Z,98254.55
2023-03-27T20:16:43.808Z,98247.89
2023-03-27T20:19:11.023Z,98252.94
2023-03-27T20:21:40.706Z,98251.99
2023-03-27T20:24:10.446Z,98246.95
2023-03-27T20:26:41.786Z,98249.36
2023-03-27T20:29:12.383Z,98249.70
2023-03-27T20:31:40.410Z,98247.84
2023-03-27T20:34:07.978Z,98244.61
2023-03-27T20:36:35.754Z,98247.23
2023-03-27T20:39:06.321Z,98251.35
2023-03-27T20:41:39.277Z,98245.72
2023-03-27T20:44:16.714Z,98245.90
2023-03-27T20:46:47.913Z,98242.73
2023-03-27T20:49:40.160Z,98243.64
2023-03-27T20:52:12.327Z,98244.42
2023-03-27T20:54:41.851Z,98246.32
2023-03-27T20:57:13.935Z,98243.92
2023-03-27T20:59:47.467Z,98248.34
2023-03-27T21:02:20.855Z,98248.23
2023-03-27T21:04:53.167Z,98247.54
2023-03-27T21:07:21.220Z,98246.74
2023-03-27T21:09:48.670Z,98245.71
2023-03-27T21:12:16.606Z,98248.04
2023-03-27T21:14:43.552Z,98241.48
2023-03-27T21:17:18.429Z,98241.98
2023-03-27T21:19:45.297Z,98242.61
2023-03-27T21:22:12.154Z,98241.40
2023-03-27T21:24:44.825Z,98247.64
2023-03-27T21:27:27.967Z,98250.39
2023-03-27T21:29:58.059Z,98251.12
2023-03-27T21:32:34.401Z,98251.25
2023-03-27T21:35:07.168Z,98251.99
2023-03-27T21:37:37.579Z,98251.71
2023-03-27T21:40:05.365Z,98251.77
2023-03-27T21:42:32.335Z,98249.64
2023-03-27T21:44:59.187Z,98250.73
2023-03-27T21:47:34.375Z,98250.04
2023-03-27T21:50:05.126Z,98247.21
2023-03-27T21:52:32.180Z,98250.37
2023-03-27T21:55:03.262Z,98248.91
2023-03-27T21:57:30.878Z,98254.02
2023-03-27T21:59:58.157Z,98249.94
2023-03-27T22:02:25.096Z,98248.98
2023-03-27T22:04:52.073Z,98250.39
2023-03-27T22:07:18.999Z,98253.31
2023-03-27T22:09:46.234Z,98254.01
2023-03-27T22:12:13.868Z,98255.13
2023-03-27T22:14:40.738Z,98257.27
2023-03-27T22:17:07.597Z,98259.14
2023-03-27T22:19:34.401Z,98255.41
2023-03-27T22:22:02.116Z,98257.17
2023-03-27T22:24:29.950Z,98259.69
2023-03-27T22:26:57.468Z,98262.92
2023-03-27T22:29:24.308Z,98263.55
2023-03-27T22:31:51.151Z,98261.92
2023-03-27T22:34:18.107Z,98265.23
2023-03-27T22:36:45.271Z,98271.98
2023-03-27T22:39:12.386Z,98273.38
2023-03-27T22:41:39.236Z,98272.73
2023-03-27T22:44:06.268Z,98273.77
2023-03-27T22:46:34.012Z,98272.44
2023-03-27T22:49:01.408Z,98274.41
2023-03-27T22:51:30.607Z,98268.46
2023-03-27T22:53:58.134Z,98273.59
2023-03-27T22:56:25.288Z,98273.77
2023-03-27T22:58:52.476Z,98275.20
2023-03-27T23:01:19.411Z,98274.41
2023-03-27T23:03:46.724Z,98273.61
2023-03-27T23:06:19.892Z,98276.08
2023-03-27T23:08:49.523Z,98281.08
2023-03-27T23:11:17.590Z,98282.54
2023-03-27T23:13:45.433Z,98283.73
2023-03-27T23:16:13.346Z,98283.27
2023-03-27T23:18:40.981Z,98283.19
2023-03-27T23:21:11.157Z,98285.55
2023-03-27T23:23:40.756Z,98286.14
2023-03-27T23:26:08.712Z,98285.67
2023-03-27T23:28:38.757Z,98286.29
2023-03-27T23:31:08.715Z,98288.17
2023-03-27T23:33:39.159Z,98290.64
2023-03-27T23:36:17.782Z,98290.45
2023-03-27T23:38:48.650Z,98287.61
2023-03-27T23:41:25.811Z,98287.16
2023-03-27T23:44:00.814Z,98287.72
2023-03-27T23:46:33.970Z,98291.23
2023-03-27T23:49:09.162Z,98291.60
2023-03-27T23:51:36.052Z,98290.15
2023-03-27T23:54:02.997Z,98293.92
2023-03-27T23:56:29.869Z,98291.44
2023-03-27T23:58:56.985Z,98289.13
